ADDS METAR Data INFO
IDs: Format: Raw Decoded Include TAF

Data at: 1946 UTC 18 Feb 2018

KPYM 181852Z AUTO 31009KT 10SM SCT040 06/M04 A3025 RMK AO2 SLP246 T00561039 TSNO
KPYM 181752Z AUTO 31010G16KT 10SM CLR 06/M03 A3020 RMK AO2 PK WND 32026/1703 SLP229 60000 T00561028 10061 20011 51029 TSNO
KPYM 181652Z AUTO 35016G25KT 10SM CLR 04/M03 A3015 RMK AO2 PK WND 34026/1611 SLP212 T00441028 TSNO
KPYM 181552Z AUTO 32018G23KT 10SM CLR 03/M02 A3018 RMK AO2 SLP220 T00331017 TSNO
KPYM 181452Z AUTO 32016G21KT 10SM CLR 02/M01 A3012 RMK AO2 SLP200 60000 T00221011 53055 TSNO
KPYM 181352Z AUTO 32012G19KT 10SM FEW009 02/M01 A3005 RMK AO2 SLP178 T00171006 TSNO
KPYM 181337Z AUTO 32013G18KT 10SM SCT009 01/M01 A3004 RMK AO2 T00111006 TSNO
KPYM 181252Z AUTO 31009KT 10SM OVC007 01/M01 A3000 RMK AO2 SNE21 CIG 006V011 SLP161 P0000 T00111006 TSNO
KPYM 181220Z AUTO 31010KT 7SM -SN OVC006 01/00 A2997 RMK AO2 CIG 005V010 P0000 T00110000 TSNO
KPYM 181152Z AUTO 31010KT 2SM -SN BR BKN006 OVC023 01/00 A2995 RMK AO2 PRESRR SLP145 P0002 60030 70057 T00110000 10011 20006 51032 TSNO
KPYM 181149Z AUTO 31009KT 1 3/4SM -SN BR BKN006 OVC023 01/00 A2995 RMK AO2 PRESRR P0002 TSNO
KPYM 181134Z AUTO 31009KT 2SM -SN BR OVC005 01/00 A2993 RMK AO2 P0001 T00110000 TSNO
KPYM 181054Z AUTO 29007KT 1 3/4SM -SN BR BKN004 OVC017 01/00 A2989 RMK AO2 VIS 1 1/4V3 P0000 T00110000 TSNO
KPYM 181052Z AUTO 29008KT 2SM -SN BR SCT004 OVC017 01/00 A2989 RMK AO2 VIS 1 1/4V5 RAE42SNB42 SLP124 P0008 T00110000 TSNO
KPYM 181006Z AUTO 29006KT 4SM RA BR FEW005 OVC017 01/00 A2987 RMK AO2 P0002 T00110000 TSNO
KPYM 180952Z AUTO 31005KT 5SM RA BR OVC014 01/00 A2986 RMK AO2 SLP112 P0005 T00110000 TSNO
KPYM 180908Z AUTO 27003KT 4SM -RA BR BKN012 OVC030 01/01 A2985 RMK AO2 P0001 T00110006 TSNO
KPYM 180852Z AUTO 00000KT 5SM -RA BR FEW016 OVC031 01/01 A2985 RMK AO2 SLP111 P0005 60015 T00110006 56029 TSNO
KPYM 180843Z AUTO 32003KT 6SM -RA BR OVC031 01/01 A2986 RMK AO2 P0004 T00110006 TSNO
KPYM 180806Z AUTO 00000KT 5SM -RA BR FEW004 FEW012 OVC024 01/01 A2987 RMK AO2 P0001 T00110006 TSNO
KPYM 180752Z AUTO 00000KT 4SM -RA BR FEW004 BKN012 OVC024 01/01 A2989 RMK AO2 SLP122 P0005 T00110006 TSNO
KPYM 180750Z AUTO 30003KT 4SM -RA BR FEW004 BKN012 OVC024 01/01 A2989 RMK AO2 P0005 TSNO
KPYM 180715Z AUTO 00000KT 4SM -RA BR SCT010 OVC014 01/01 A2991 RMK AO2 P0003 T00110006 TSNO
KPYM 180702Z AUTO 00000KT 5SM -RA BR SCT010 OVC016 01/01 A2992 RMK AO2 P0001 T00110006 TSNO
KPYM 180652Z AUTO 00000KT 5SM -RA BR FEW006 BKN013 OVC018 01/00 A2994 RMK AO2 RAB07SNE07 SLP140 P0005 T00110000 TSNO
KPYM 180631Z AUTO 11003KT 4SM -RA BR FEW005 BKN012 OVC018 01/01 A2994 RMK AO2 RAB07SNE07 P0004 T00110006 TSNO
KPYM 180552Z AUTO 09006KT 4SM -SN BR BKN006 OVC010 01/01 A2998 RMK AO2 SLP155 P0009 60027 T00110006 10011 20000 56039 TSNO
KPYM 180547Z AUTO 10005KT 2 1/2SM -SN BR OVC008 01/01 A2999 RMK AO2 P0008 TSNO
KPYM 180503Z AUTO 11006KT 1SM -SN BR BKN005 OVC010 01/00 A3003 RMK AO2 P0002 T00110000 TSNO
KPYM 180452Z AUTO 11007KT 3/4SM -SN BR BKN005 OVC009 01/00 A3004 RMK AO2 SLP173 P0007 T00060000 400391028 TSNO
KPYM 180352Z AUTO 12006KT 1SM -SN BR OVC005 01/00 A3010 RMK AO2 PRESFR SLP194 P0007 T00060000 TSNO
KPYM 180348Z AUTO 11006KT 1 1/4SM -SN BR OVC005 01/00 A3010 RMK AO2 PRESFR P0007 TSNO
KPYM 180306Z AUTO 13004KT 3/4SM -SN BR BKN005 OVC011 01/M01 A3016 RMK AO2 P0002 T00061006 TSNO
KPYM 180259Z AUTO 12003KT 1SM -SN BR BKN006 OVC013 01/M01 A3016 RMK AO2 P0001 T00061006 TSNO
KPYM 180252Z AUTO 13004KT 1SM -SN BR SCT006 OVC013 01/M01 A3016 RMK AO2 SLP216 P0004 60004 T00061006 58041 TSNO
KPYM 180238Z AUTO 12003KT 1SM -SN BR FEW005 OVC013 00/M01 A3017 RMK AO2 P0004 T00001006 TSNO
KPYM 180229Z AUTO 12004KT 3/4SM -SN BR FEW005 OVC011 00/M01 A3018 RMK AO2 PRESFR P0003 T00001011 TSNO
KPYM 180207Z AUTO 15005KT 3/4SM -SN BR VV014 00/M02 A3021 RMK AO2 P0001 T00001017 TSNO
KPYM 180152Z AUTO 00000KT 1 1/4SM -SN OVC022 01/M02 A3022 RMK AO2 SNB36 SLP236 P0000 T00061022 TSNO
KPYM 180147Z AUTO 00000KT 1 3/4SM -SN OVC026 01/M03 A3023 RMK AO2 SNB36 P0000 TSNO
KPYM 180052Z AUTO 14004KT 10SM BKN040 OVC055 01/M04 A3025 RMK AO2 SLP244 T00111039 TSNO
KPYM 172352Z AUTO 12004KT 10SM BKN037 OVC110 01/M04 A3029 RMK AO2 PRESFR SLP257 T00111044 10039 20011 58019 TSNO
KPYM 172252Z AUTO 16006KT 10SM OVC030 01/M05 A3032 RMK AO2 SLP268 T00111050 TSNO
KPYM 172152Z AUTO VRB05KT 10SM CLR 02/M05 A3033 RMK AO2 SLP271 T00171050 TSNO
KPYM 172052Z AUTO 21008KT 10SM CLR 02/M07 A3034 RMK AO2 SLP276 T00221067 55003 TSNO
KPYM 171952Z AUTO 15007KT 10SM CLR 03/M08 A3034 RMK AO2 SLP274 T00331083 TSNO
KPYM 171852Z AUTO 05006KT 10SM CLR 03/M09 A3035 RMK AO2 SLP277 T00281089 TSNO
KPYM 171752Z AUTO 00000KT 10SM CLR 03/M12 A3035 RMK AO2 SLP279 T00281122 10028 21028 58019 TSNO
KPYM 171652Z AUTO 01006KT 10SM CLR 02/M12 A3039 RMK AO2 SLP294 T00221117 TSNO
KPYM 171552Z AUTO 06006KT 10SM CLR 01/M12 A3041 RMK AO2 SLP300 T00061117 TSNO
KPYM 171452Z AUTO 09006KT 10SM CLR 01/M12 A3041 RMK AO2 SLP298 T00061122 50014 TSNO
KPYM 171352Z AUTO 03006KT 10SM CLR 00/M12 A3041 RMK AO2 SLP301 T00001117 TSNO
KPYM 171252Z AUTO 36003KT 10SM CLR M01/M11 A3040 RMK AO2 SLP296 T10111111 TSNO
KPYM 171152Z AUTO 36006KT 10SM CLR M02/M12 A3036 RMK AO2 SLP284 70002 T10221117 10006 21028 51040 TSNO
KPYM 171052Z AUTO 33010KT 10SM CLR M02/M13 A3032 RMK AO2 SLP269 T10171128 TSNO
KPYM 170952Z AUTO 31009KT 10SM CLR M02/M12 A3029 RMK AO2 SLP258 T10171122 TSNO
KPYM 170852Z AUTO 32011G16KT 10SM CLR M01/M11 A3025 RMK AO2 PRESRR SLP243 T10111111 51045 TSNO
KPYM 170752Z AUTO 31009KT 10SM CLR M01/M10 A3021 RMK AO2 SLP229 T10061100 TSNO